sensor_id;sensor_type;location;lat;lon;timestamp;pressure;altitude;pressure_sealevel;temperature;humidity
61359;BME280;47228;46.762;23.598;2022-08-30T00:02:24;97362.90;;;20.16;78.60
61359;BME280;47228;46.762;23.598;2022-08-30T00:04:52;97363.00;;;20.13;78.82
61359;BME280;47228;46.762;23.598;2022-08-30T00:07:21;97361.77;;;20.13;78.75
61359;BME280;47228;46.762;23.598;2022-08-30T00:09:49;97363.83;;;20.13;78.96
61359;BME280;47228;46.762;23.598;2022-08-30T00:12:18;97363.92;;;20.15;78.54
61359;BME280;47228;46.762;23.598;2022-08-30T00:14:48;97358.97;;;20.15;78.53
61359;BME280;47228;46.762;23.598;2022-08-30T00:17:16;97355.98;;;20.16;78.60
61359;BME280;47228;46.762;23.598;2022-08-30T00:19:46;97355.30;;;20.15;78.53
61359;BME280;47228;46.762;23.598;2022-08-30T00:22:14;97357.88;;;20.13;78.64
61359;BME280;47228;46.762;23.598;2022-08-30T00:24:42;97363.93;;;20.13;78.51
61359;BME280;47228;46.762;23.598;2022-08-30T00:27:10;97363.65;;;20.12;78.62
61359;BME280;47228;46.762;23.598;2022-08-30T00:29:38;97366.33;;;20.10;78.33
61359;BME280;47228;46.762;23.598;2022-08-30T00:32:07;97366.65;;;20.08;78.28
61359;BME280;47228;46.762;23.598;2022-08-30T00:34:34;97370.48;;;20.07;78.45
61359;BME280;47228;46.762;23.598;2022-08-30T00:37:02;97367.98;;;20.06;78.51
61359;BME280;47228;46.762;23.598;2022-08-30T00:39:30;97367.19;;;20.04;78.51
61359;BME280;47228;46.762;23.598;2022-08-30T00:41:58;97367.02;;;20.04;78.26
61359;BME280;47228;46.762;23.598;2022-08-30T00:44:26;97365.56;;;20.02;78.48
61359;BME280;47228;46.762;23.598;2022-08-30T00:46:54;97369.54;;;20.00;78.47
61359;BME280;47228;46.762;23.598;2022-08-30T00:49:24;97369.70;;;19.97;78.36
61359;BME280;47228;46.762;23.598;2022-08-30T00:51:52;97370.42;;;19.96;78.58
61359;BME280;47228;46.762;23.598;2022-08-30T00:54:22;97369.44;;;19.96;78.46
61359;BME280;47228;46.762;23.598;2022-08-30T00:56:53;97372.40;;;19.96;78.35
61359;BME280;47228;46.762;23.598;2022-08-30T00:59:22;97369.40;;;19.97;78.58
61359;BME280;47228;46.762;23.598;2022-08-30T01:01:51;97370.92;;;19.99;78.26
61359;BME280;47228;46.762;23.598;2022-08-30T01:04:21;97364.59;;;19.98;78.26
61359;BME280;47228;46.762;23.598;2022-08-30T01:06:52;97367.58;;;19.98;78.47
61359;BME280;47228;46.762;23.598;2022-08-30T01:09:20;97368.94;;;19.99;78.52
61359;BME280;47228;46.762;23.598;2022-08-30T01:11:49;97369.13;;;19.97;78.40
61359;BME280;47228;46.762;23.598;2022-08-30T01:14:18;97374.46;;;19.98;78.46
61359;BME280;47228;46.762;23.598;2022-08-30T01:16:55;97373.59;;;19.97;78.27
61359;BME280;47228;46.762;23.598;2022-08-30T01:19:35;97378.66;;;19.95;78.48
61359;BME280;47228;46.762;23.598;2022-08-30T01:25:09;97380.91;;;19.93;78.55
61359;BME280;47228;46.762;23.598;2022-08-30T01:27:53;97379.18;;;19.91;78.25
61359;BME280;47228;46.762;23.598;2022-08-30T01:30:22;97379.51;;;19.91;78.27
61359;BME280;47228;46.762;23.598;2022-08-30T01:33:02;97378.20;;;19.88;78.38
61359;BME280;47228;46.762;23.598;2022-08-30T01:36:00;97379.98;;;19.88;78.40
61359;BME280;47228;46.762;23.598;2022-08-30T01:38:36;97382.62;;;19.89;78.25
61359;BME280;47228;46.762;23.598;2022-08-30T01:41:16;97382.34;;;19.86;78.33
61359;BME280;47228;46.762;23.598;2022-08-30T01:43:44;97382.45;;;19.86;78.45
61359;BME280;47228;46.762;23.598;2022-08-30T01:46:14;97380.52;;;19.85;78.63
61359;BME280;47228;46.762;23.598;2022-08-30T01:48:44;97377.55;;;19.87;78.43
61359;BME280;47228;46.762;23.598;2022-08-30T01:51:24;97377.02;;;19.89;78.22
61359;BME280;47228;46.762;23.598;2022-08-30T01:53:53;97378.70;;;19.93;78.87
61359;BME280;47228;46.762;23.598;2022-08-30T01:56:23;97375.20;;;19.96;79.02
61359;BME280;47228;46.762;23.598;2022-08-30T01:58:52;97375.75;;;19.97;79.21
61359;BME280;47228;46.762;23.598;2022-08-30T02:01:22;97376.84;;;19.98;79.22
61359;BME280;47228;46.762;23.598;2022-08-30T02:03:54;97373.30;;;19.98;78.91
61359;BME280;47228;46.762;23.598;2022-08-30T02:06:23;97375.77;;;19.98;79.14
61359;BME280;47228;46.762;23.598;2022-08-30T02:08:51;97377.16;;;19.98;79.19
61359;BME280;47228;46.762;23.598;2022-08-30T02:11:19;97377.02;;;19.99;79.36
61359;BME280;47228;46.762;23.598;2022-08-30T02:13:48;97377.05;;;20.00;79.26
61359;BME280;47228;46.762;23.598;2022-08-30T02:16:18;97378.12;;;20.01;79.39
61359;BME280;47228;46.762;23.598;2022-08-30T02:18:51;97375.48;;;20.01;79.74
61359;BME280;47228;46.762;23.598;2022-08-30T02:21:19;97377.46;;;20.00;79.66
61359;BME280;47228;46.762;23.598;2022-08-30T02:23:49;97377.84;;;19.99;80.18
61359;BME280;47228;46.762;23.598;2022-08-30T02:26:18;97376.23;;;19.98;80.20
61359;BME280;47228;46.762;23.598;2022-08-30T02:28:47;97377.13;;;19.98;80.80
61359;BME280;47228;46.762;23.598;2022-08-30T02:31:18;97380.33;;;19.97;81.04
61359;BME280;47228;46.762;23.598;2022-08-30T02:33:49;97375.64;;;19.96;80.93
61359;BME280;47228;46.762;23.598;2022-08-30T02:36:19;97378.07;;;19.94;80.66
61359;BME280;47228;46.762;23.598;2022-08-30T02:38:49;97372.83;;;19.91;81.00
61359;BME280;47228;46.762;23.598;2022-08-30T02:41:18;97374.21;;;19.90;81.19
61359;BME280;47228;46.762;23.598;2022-08-30T02:43:47;97372.80;;;19.88;81.19
61359;BME280;47228;46.762;23.598;2022-08-30T02:46:16;97370.48;;;19.88;81.22
61359;BME280;47228;46.762;23.598;2022-08-30T02:48:45;97368.23;;;19.89;80.99
61359;BME280;47228;46.762;23.598;2022-08-30T02:51:13;97368.66;;;19.88;81.03
61359;BME280;47228;46.762;23.598;2022-08-30T02:53:43;97365.70;;;19.87;81.06
61359;BME280;47228;46.762;23.598;2022-08-30T02:56:12;97361.36;;;19.83;81.21
61359;BME280;47228;46.762;23.598;2022-08-30T02:58:42;97361.46;;;19.80;81.06
61359;BME280;47228;46.762;23.598;2022-08-30T03:01:13;97362.42;;;19.78;81.09
61359;BME280;47228;46.762;23.598;2022-08-30T03:03:43;97362.41;;;19.73;80.97
61359;BME280;47228;46.762;23.598;2022-08-30T03:06:13;97359.38;;;19.71;81.17
61359;BME280;47228;46.762;23.598;2022-08-30T03:08:41;97364.70;;;19.69;81.52
61359;BME280;47228;46.762;23.598;2022-08-30T03:11:10;97358.28;;;19.67;81.41
61359;BME280;47228;46.762;23.598;2022-08-30T03:13:39;97359.73;;;19.65;81.68
61359;BME280;47228;46.762;23.598;2022-08-30T03:16:08;97359.30;;;19.65;81.82
61359;BME280;47228;46.762;23.598;2022-08-30T03:18:36;97365.51;;;19.67;82.32
61359;BME280;47228;46.762;23.598;2022-08-30T03:21:12;97367.18;;;19.70;82.31
61359;BME280;47228;46.762;23.598;2022-08-30T03:23:41;97364.61;;;19.71;82.45
61359;BME280;47228;46.762;23.598;2022-08-30T03:26:10;97375.77;;;19.71;82.41
61359;BME280;47228;46.762;23.598;2022-08-30T03:28:42;97377.20;;;19.68;82.21
61359;BME280;47228;46.762;23.598;2022-08-30T03:31:10;97387.14;;;19.62;81.89
61359;BME280;47228;46.762;23.598;2022-08-30T03:33:39;97388.70;;;19.58;82.14
61359;BME280;47228;46.762;23.598;2022-08-30T03:36:08;97390.00;;;19.54;82.24
61359;BME280;47228;46.762;23.598;2022-08-30T03:38:37;97394.19;;;19.52;82.60
61359;BME280;47228;46.762;23.598;2022-08-30T03:41:05;97395.70;;;19.51;82.42
61359;BME280;47228;46.762;23.598;2022-08-30T03:43:35;97396.33;;;19.48;82.72
61359;BME280;47228;46.762;23.598;2022-08-30T03:46:04;97397.48;;;19.44;82.61
61359;BME280;47228;46.762;23.598;2022-08-30T03:48:32;97395.80;;;19.40;82.99
61359;BME280;47228;46.762;23.598;2022-08-30T03:51:00;97397.02;;;19.40;83.19
61359;BME280;47228;46.762;23.598;2022-08-30T03:53:33;97395.73;;;19.39;83.05
61359;BME280;47228;46.762;23.598;2022-08-30T03:56:02;97395.45;;;19.36;82.98
61359;BME280;47228;46.762;23.598;2022-08-30T03:58:30;97392.90;;;19.34;82.76
61359;BME280;47228;46.762;23.598;2022-08-30T04:00:58;97393.20;;;19.31;82.87
61359;BME280;47228;46.762;23.598;2022-08-30T04:03:27;97393.30;;;19.29;82.79
61359;BME280;47228;46.762;23.598;2022-08-30T04:05:56;97397.27;;;19.26;82.73
61359;BME280;47228;46.762;23.598;2022-08-30T04:08:24;97404.30;;;19.23;82.80
61359;BME280;47228;46.762;23.598;2022-08-30T04:10:53;97411.02;;;19.20;82.80
61359;BME280;47228;46.762;23.598;2022-08-30T04:13:22;97411.63;;;19.17;82.83
61359;BME280;47228;46.762;23.598;2022-08-30T04:15:51;97409.08;;;19.14;82.88
61359;BME280;47228;46.762;23.598;2022-08-30T04:18:19;97410.73;;;19.10;82.88
61359;BME280;47228;46.762;23.598;2022-08-30T04:20:47;97414.59;;;19.08;83.01
61359;BME280;47228;46.762;23.598;2022-08-30T04:23:15;97416.41;;;19.07;83.51
61359;BME280;47228;46.762;23.598;2022-08-30T04:25:44;97415.72;;;19.05;83.33
61359;BME280;47228;46.762;23.598;2022-08-30T04:28:13;97414.11;;;19.00;83.39
61359;BME280;47228;46.762;23.598;2022-08-30T04:30:42;97411.11;;;18.95;83.37
61359;BME280;47228;46.762;23.598;2022-08-30T04:33:12;97414.92;;;18.93;83.75
61359;BME280;47228;46.762;23.598;2022-08-30T04:35:42;97414.48;;;18.91;83.97
61359;BME280;47228;46.762;23.598;2022-08-30T04:38:11;97418.05;;;18.90;84.14
61359;BME280;47228;46.762;23.598;2022-08-30T04:40:42;97422.40;;;18.92;84.50
61359;BME280;47228;46.762;23.598;2022-08-30T04:43:10;97423.70;;;18.94;84.59
61359;BME280;47228;46.762;23.598;2022-08-30T04:45:41;97424.68;;;18.96;84.88
61359;BME280;47228;46.762;23.598;2022-08-30T04:48:09;97434.01;;;18.97;84.45
61359;BME280;47228;46.762;23.598;2022-08-30T04:50:37;97432.39;;;18.97;84.36
61359;BME280;47228;46.762;23.598;2022-08-30T04:53:13;97433.63;;;18.98;84.40
61359;BME280;47228;46.762;23.598;2022-08-30T04:55:42;97433.20;;;18.98;84.47
61359;BME280;47228;46.762;23.598;2022-08-30T04:58:10;97429.17;;;18.99;84.47
61359;BME280;47228;46.762;23.598;2022-08-30T05:00:38;97428.97;;;19.00;84.63
61359;BME280;47228;46.762;23.598;2022-08-30T05:03:09;97431.09;;;19.03;84.43
61359;BME280;47228;46.762;23.598;2022-08-30T05:05:37;97432.38;;;19.06;84.83
61359;BME280;47228;46.762;23.598;2022-08-30T05:08:11;97435.44;;;19.11;85.12
61359;BME280;47228;46.762;23.598;2022-08-30T05:10:42;97433.21;;;19.16;85.02
61359;BME280;47228;46.762;23.598;2022-08-30T05:13:11;97432.61;;;19.20;84.57
61359;BME280;47228;46.762;23.598;2022-08-30T05:15:40;97438.77;;;19.22;84.58
61359;BME280;47228;46.762;23.598;2022-08-30T05:18:08;97440.83;;;19.24;84.23
61359;BME280;47228;46.762;23.598;2022-08-30T05:20:41;97438.33;;;19.22;83.78
61359;BME280;47228;46.762;23.598;2022-08-30T05:23:10;97439.05;;;19.19;83.65
61359;BME280;47228;46.762;23.598;2022-08-30T05:25:40;97438.34;;;19.17;83.91
61359;BME280;47228;46.762;23.598;2022-08-30T05:28:08;97439.58;;;19.17;84.16
61359;BME280;47228;46.762;23.598;2022-08-30T05:30:36;97438.92;;;19.15;83.92
61359;BME280;47228;46.762;23.598;2022-08-30T05:33:05;97437.58;;;19.15;84.16
61359;BME280;47228;46.762;23.598;2022-08-30T05:35:33;97438.56;;;19.16;84.03
61359;BME280;47228;46.762;23.598;2022-08-30T05:38:01;97439.27;;;19.18;84.03
61359;BME280;47228;46.762;23.598;2022-08-30T05:40:29;97439.36;;;19.16;83.63
61359;BME280;47228;46.762;23.598;2022-08-30T05:42:58;97439.34;;;19.14;83.28
61359;BME280;47228;46.762;23.598;2022-08-30T05:45:26;97441.32;;;19.12;83.43
61359;BME280;47228;46.762;23.598;2022-08-30T05:47:54;97441.59;;;19.12;83.34
61359;BME280;47228;46.762;23.598;2022-08-30T05:50:22;97442.85;;;19.14;83.52
61359;BME280;47228;46.762;23.598;2022-08-30T05:52:50;97439.58;;;19.17;83.52
61359;BME280;47228;46.762;23.598;2022-08-30T05:55:19;97442.89;;;19.18;83.47
61359;BME280;47228;46.762;23.598;2022-08-30T05:57:48;97443.27;;;19.20;83.54
61359;BME280;47228;46.762;23.598;2022-08-30T06:00:17;97448.73;;;19.22;83.16
61359;BME280;47228;46.762;23.598;2022-08-30T06:02:45;97450.84;;;19.24;82.94
61359;BME280;47228;46.762;23.598;2022-08-30T06:05:13;97450.89;;;19.25;82.62
61359;BME280;47228;46.762;23.598;2022-08-30T06:07:42;97450.35;;;19.24;82.37
61359;BME280;47228;46.762;23.598;2022-08-30T06:10:10;97450.95;;;19.25;82.40
61359;BME280;47228;46.762;23.598;2022-08-30T06:12:39;97453.45;;;19.29;83.09
61359;BME280;47228;46.762;23.598;2022-08-30T06:15:08;97456.59;;;19.38;83.34
61359;BME280;47228;46.762;23.598;2022-08-30T06:17:36;97456.01;;;19.47;83.60
61359;BME280;47228;46.762;23.598;2022-08-30T06:20:07;97456.03;;;19.58;83.59
61359;BME280;47228;46.762;23.598;2022-08-30T06:22:36;97454.58;;;19.68;83.47
61359;BME280;47228;46.762;23.598;2022-08-30T06:25:06;97456.36;;;19.79;83.20
61359;BME280;47228;46.762;23.598;2022-08-30T06:27:34;97458.88;;;19.85;82.73
61359;BME280;47228;46.762;23.598;2022-08-30T06:30:04;97459.89;;;19.93;82.55
61359;BME280;47228;46.762;23.598;2022-08-30T06:32:36;97464.64;;;20.02;82.72
61359;BME280;47228;46.762;23.598;2022-08-30T06:35:05;97466.30;;;20.08;82.32
61359;BME280;47228;46.762;23.598;2022-08-30T06:37:35;97470.83;;;20.13;81.99
61359;BME280;47228;46.762;23.598;2022-08-30T06:40:04;97471.67;;;20.17;81.32
61359;BME280;47228;46.762;23.598;2022-08-30T06:42:32;97474.94;;;20.24;81.83
61359;BME280;47228;46.762;23.598;2022-08-30T06:45:01;97478.46;;;20.32;81.51
61359;BME280;47228;46.762;23.598;2022-08-30T06:47:39;97485.08;;;20.39;80.46
61359;BME280;47228;46.762;23.598;2022-08-30T06:50:08;97478.63;;;20.45;80.12
61359;BME280;47228;46.762;23.598;2022-08-30T06:52:40;97476.11;;;20.53;79.81
61359;BME280;47228;46.762;23.598;2022-08-30T06:55:11;97475.80;;;20.59;79.32
61359;BME280;47228;46.762;23.598;2022-08-30T06:57:41;97476.95;;;20.66;79.44
61359;BME280;47228;46.762;23.598;2022-08-30T07:00:12;97479.77;;;20.72;79.34
61359;BME280;47228;46.762;23.598;2022-08-30T07:02:41;97484.48;;;20.77;78.48
61359;BME280;47228;46.762;23.598;2022-08-30T07:05:09;97482.11;;;20.78;77.71
61359;BME280;47228;46.762;23.598;2022-08-30T07:07:45;97484.05;;;20.83;77.63
61359;BME280;47228;46.762;23.598;2022-08-30T07:10:14;97484.62;;;20.88;77.33
61359;BME280;47228;46.762;23.598;2022-08-30T07:12:42;97482.52;;;20.92;76.71
61359;BME280;47228;46.762;23.598;2022-08-30T07:15:10;97478.70;;;20.96;76.67
61359;BME280;47228;46.762;23.598;2022-08-30T07:17:39;97478.38;;;20.99;76.27
61359;BME280;47228;46.762;23.598;2022-08-30T07:20:26;97482.02;;;21.09;76.69
61359;BME280;47228;46.762;23.598;2022-08-30T07:23:08;97485.38;;;21.23;76.48
61359;BME280;47228;46.762;23.598;2022-08-30T07:25:39;97482.83;;;21.33;75.35
61359;BME280;47228;46.762;23.598;2022-08-30T07:28:08;97485.80;;;21.43;75.76
61359;BME280;47228;46.762;23.598;2022-08-30T07:30:37;97483.95;;;21.56;76.00
61359;BME280;47228;46.762;23.598;2022-08-30T07:33:06;97484.20;;;21.68;74.84
61359;BME280;47228;46.762;23.598;2022-08-30T07:35:34;97483.88;;;21.80;73.75
61359;BME280;47228;46.762;23.598;2022-08-30T07:38:04;97478.56;;;21.90;73.35
61359;BME280;47228;46.762;23.598;2022-08-30T07:40:32;97476.68;;;22.03;73.11
61359;BME280;47228;46.762;23.598;2022-08-30T07:43:00;97477.88;;;22.18;72.79
61359;BME280;47228;46.762;23.598;2022-08-30T07:45:29;97478.09;;;22.33;72.20
61359;BME280;47228;46.762;23.598;2022-08-30T07:47:57;97477.58;;;22.49;72.70
61359;BME280;47228;46.762;23.598;2022-08-30T07:50:25;97475.30;;;22.64;71.82
61359;BME280;47228;46.762;23.598;2022-08-30T07:52:54;97476.27;;;22.78;70.56
61359;BME280;47228;46.762;23.598;2022-08-30T07:55:22;97478.73;;;22.90;70.24
61359;BME280;47228;46.762;23.598;2022-08-30T07:57:50;97476.33;;;23.01;69.87
61359;BME280;47228;46.762;23.598;2022-08-30T08:00:19;97476.52;;;23.11;68.92
61359;BME280;47228;46.762;23.598;2022-08-30T08:02:48;97476.49;;;23.20;67.86
61359;BME280;47228;46.762;23.598;2022-08-30T08:05:16;97479.81;;;23.26;67.51
61359;BME280;47228;46.762;23.598;2022-08-30T08:07:49;97478.19;;;23.36;67.83
61359;BME280;47228;46.762;23.598;2022-08-30T08:10:17;97482.05;;;23.46;67.67
61359;BME280;47228;46.762;23.598;2022-08-30T08:12:45;97482.94;;;23.57;66.85
61359;BME280;47228;46.762;23.598;2022-08-30T08:15:14;97484.52;;;23.68;66.61
61359;BME280;47228;46.762;23.598;2022-08-30T08:17:42;97486.08;;;23.79;65.67
61359;BME280;47228;46.762;23.598;2022-08-30T08:20:10;97485.05;;;23.89;65.67
61359;BME280;47228;46.762;23.598;2022-08-30T08:22:38;97481.25;;;24.00;66.17
61359;BME280;47228;46.762;23.598;2022-08-30T08:25:07;97484.89;;;24.10;65.56
61359;BME280;47228;46.762;23.598;2022-08-30T08:27:35;97480.13;;;24.21;65.13
61359;BME280;47228;46.762;23.598;2022-08-30T08:30:04;97478.73;;;24.28;64.63
61359;BME280;47228;46.762;23.598;2022-08-30T08:32:32;97477.83;;;24.36;64.30
61359;BME280;47228;46.762;23.598;2022-08-30T08:35:00;97481.04;;;24.44;64.14
61359;BME280;47228;46.762;23.598;2022-08-30T08:37:29;97479.39;;;24.52;63.90
61359;BME280;47228;46.762;23.598;2022-08-30T08:39:57;97477.60;;;24.61;63.55
61359;BME280;47228;46.762;23.598;2022-08-30T08:45:26;97479.34;;;24.68;63.86
61359;BME280;47228;46.762;23.598;2022-08-30T08:50:46;97472.84;;;24.85;62.57
61359;BME280;47228;46.762;23.598;2022-08-30T08:53:35;97468.55;;;24.92;62.31
61359;BME280;47228;46.762;23.598;2022-08-30T08:56:19;97465.45;;;25.03;62.22
61359;BME280;47228;46.762;23.598;2022-08-30T08:58:54;97464.48;;;25.12;61.77
61359;BME280;47228;46.762;23.598;2022-08-30T09:01:26;97464.77;;;25.23;62.08
61359;BME280;47228;46.762;23.598;2022-08-30T09:03:57;97462.91;;;25.32;61.07
61359;BME280;47228;46.762;23.598;2022-08-30T09:09:12;97458.27;;;25.50;61.25
61359;BME280;47228;46.762;23.598;2022-08-30T09:11:41;97449.02;;;25.58;61.32
61359;BME280;47228;46.762;23.598;2022-08-30T09:14:15;97453.48;;;25.63;60.51
61359;BME280;47228;46.762;23.598;2022-08-30T09:22:38;97451.77;;;25.88;59.20
61359;BME280;47228;46.762;23.598;2022-08-30T09:27:44;97454.48;;;25.94;58.10
61359;BME280;47228;46.762;23.598;2022-08-30T09:30:25;97450.47;;;25.97;58.04
61359;BME280;47228;46.762;23.598;2022-08-30T09:33:02;97444.57;;;25.99;57.55
61359;BME280;47228;46.762;23.598;2022-08-30T09:35:36;97442.44;;;25.98;57.32
61359;BME280;47228;46.762;23.598;2022-08-30T09:38:09;97436.59;;;26.00;57.54
61359;BME280;47228;46.762;23.598;2022-08-30T09:48:42;97427.24;;;26.15;55.78
61359;BME280;47228;46.762;23.598;2022-08-30T09:54:03;97418.80;;;26.18;56.27
61359;BME280;47228;46.762;23.598;2022-08-30T09:57:06;97418.23;;;26.19;56.13
61359;BME280;47228;46.762;23.598;2022-08-30T09:59:49;97417.21;;;26.33;56.48
61359;BME280;47228;46.762;23.598;2022-08-30T10:11:22;97406.30;;;26.91;53.54
61359;BME280;47228;46.762;23.598;2022-08-30T10:17:05;97405.85;;;27.15;53.25
61359;BME280;47228;46.762;23.598;2022-08-30T10:22:41;97406.77;;;27.56;52.45
61359;BME280;47228;46.762;23.598;2022-08-30T10:25:20;97406.95;;;27.74;52.63
61359;BME280;47228;46.762;23.598;2022-08-30T10:30:39;97401.70;;;28.14;51.51
61359;BME280;47228;46.762;23.598;2022-08-30T10:33:20;97398.96;;;28.37;51.07
61359;BME280;47228;46.762;23.598;2022-08-30T10:35:53;97397.83;;;28.58;50.86
61359;BME280;47228;46.762;23.598;2022-08-30T10:38:26;97394.48;;;28.53;49.34
61359;BME280;47228;46.762;23.598;2022-08-30T10:41:02;97400.31;;;28.37;49.05
61359;BME280;47228;46.762;23.598;2022-08-30T10:49:10;97392.46;;;27.78;51.11
61359;BME280;47228;46.762;23.598;2022-08-30T10:51:46;97385.40;;;27.62;50.92
61359;BME280;47228;46.762;23.598;2022-08-30T10:54:20;97380.84;;;27.48;51.50
61359;BME280;47228;46.762;23.598;2022-08-30T10:56:51;97382.03;;;27.36;52.52
61359;BME280;47228;46.762;23.598;2022-08-30T10:59:21;97379.98;;;27.23;52.87
61359;BME280;47228;46.762;23.598;2022-08-30T11:07:36;97378.39;;;26.67;51.93
61359;BME280;47228;46.762;23.598;2022-08-30T11:10:18;97376.09;;;26.51;53.15
61359;BME280;47228;46.762;23.598;2022-08-30T11:12:52;97376.55;;;26.37;53.90
61359;BME280;47228;46.762;23.598;2022-08-30T11:15:25;97371.29;;;26.27;54.35
61359;BME280;47228;46.762;23.598;2022-08-30T11:18:10;97364.48;;;26.20;55.04
61359;BME280;47228;46.762;23.598;2022-08-30T11:20:44;97356.52;;;26.14;54.69
61359;BME280;47228;46.762;23.598;2022-08-30T11:29:40;97351.80;;;25.95;55.83
61359;BME280;47228;46.762;23.598;2022-08-30T11:52:10;97402.21;;;25.22;57.50
61359;BME280;47228;46.762;23.598;2022-08-30T11:57:49;97419.09;;;24.35;64.18
61359;BME280;47228;46.762;23.598;2022-08-30T12:00:36;97417.61;;;23.39;66.61
61359;BME280;47228;46.762;23.598;2022-08-30T12:16:13;97430.98;;;20.95;77.53
61359;BME280;47228;46.762;23.598;2022-08-30T12:24:12;97408.05;;;20.72;79.92
61359;BME280;47228;46.762;23.598;2022-08-30T12:26:46;97394.33;;;20.61;79.08
61359;BME280;47228;46.762;23.598;2022-08-30T12:32:04;97394.65;;;20.33;79.24
61359;BME280;47228;46.762;23.598;2022-08-30T12:37:31;97391.10;;;20.10;79.99
61359;BME280;47228;46.762;23.598;2022-08-30T12:40:11;97394.46;;;20.03;80.69
61359;BME280;47228;46.762;23.598;2022-08-30T12:42:53;97391.41;;;19.99;81.27
61359;BME280;47228;46.762;23.598;2022-08-30T12:45:32;97387.44;;;19.94;80.78
61359;BME280;47228;46.762;23.598;2022-08-30T12:48:10;97389.42;;;19.88;81.20
61359;BME280;47228;46.762;23.598;2022-08-30T12:50:50;97392.19;;;19.81;81.80
61359;BME280;47228;46.762;23.598;2022-08-30T12:56:02;97368.63;;;19.78;82.73
61359;BME280;47228;46.762;23.598;2022-08-30T12:58:47;97362.51;;;19.74;82.69
61359;BME280;47228;46.762;23.598;2022-08-30T13:01:28;97362.34;;;19.73;83.65
61359;BME280;47228;46.762;23.598;2022-08-30T13:04:11;97365.98;;;19.76;84.83
61359;BME280;47228;46.762;23.598;2022-08-30T13:06:56;97370.41;;;19.81;84.86
61359;BME280;47228;46.762;23.598;2022-08-30T13:09:29;97376.58;;;19.85;85.35
61359;BME280;47228;46.762;23.598;2022-08-30T13:12:08;97381.53;;;19.87;84.88
61359;BME280;47228;46.762;23.598;2022-08-30T13:14:40;97377.80;;;19.84;84.87
61359;BME280;47228;46.762;23.598;2022-08-30T13:17:19;97377.11;;;19.82;84.81
61359;BME280;47228;46.762;23.598;2022-08-30T13:19:56;97369.22;;;19.81;85.21
61359;BME280;47228;46.762;23.598;2022-08-30T13:25:02;97361.52;;;19.79;84.19
61359;BME280;47228;46.762;23.598;2022-08-30T13:27:33;97358.70;;;19.75;84.36
61359;BME280;47228;46.762;23.598;2022-08-30T13:30:13;97357.73;;;19.74;85.02
61359;BME280;47228;46.762;23.598;2022-08-30T13:32:44;97354.48;;;19.76;85.29
61359;BME280;47228;46.762;23.598;2022-08-30T13:35:12;97355.26;;;19.77;84.78
61359;BME280;47228;46.762;23.598;2022-08-30T13:37:41;97354.92;;;19.75;84.77
61359;BME280;47228;46.762;23.598;2022-08-30T13:40:19;97349.27;;;19.76;85.14
61359;BME280;47228;46.762;23.598;2022-08-30T13:42:48;97347.80;;;19.75;84.81
61359;BME280;47228;46.762;23.598;2022-08-30T13:45:19;97345.23;;;19.78;85.34
61359;BME280;47228;46.762;23.598;2022-08-30T13:48:07;97342.66;;;19.79;85.07
61359;BME280;47228;46.762;23.598;2022-08-30T13:50:38;97350.25;;;19.80;85.29
61359;BME280;47228;46.762;23.598;2022-08-30T13:53:07;97359.15;;;19.80;85.04
61359;BME280;47228;46.762;23.598;2022-08-30T13:55:37;97362.22;;;19.80;85.21
61359;BME280;47228;46.762;23.598;2022-08-30T13:58:07;97369.50;;;19.81;85.65
61359;BME280;47228;46.762;23.598;2022-08-30T14:00:40;97376.05;;;19.88;86.57
61359;BME280;47228;46.762;23.598;2022-08-30T14:03:08;97376.13;;;19.96;86.61
61359;BME280;47228;46.762;23.598;2022-08-30T14:05:37;97372.30;;;20.02;85.94
61359;BME280;47228;46.762;23.598;2022-08-30T14:08:23;97374.05;;;20.09;86.52
61359;BME280;47228;46.762;23.598;2022-08-30T14:11:13;97375.86;;;20.21;86.80
61359;BME280;47228;46.762;23.598;2022-08-30T14:13:46;97370.80;;;20.31;86.86
61359;BME280;47228;46.762;23.598;2022-08-30T14:16:38;97365.65;;;20.46;86.77
61359;BME280;47228;46.762;23.598;2022-08-30T14:19:08;97366.95;;;20.56;86.41
61359;BME280;47228;46.762;23.598;2022-08-30T14:21:39;97372.58;;;20.66;86.28
61359;BME280;47228;46.762;23.598;2022-08-30T14:24:08;97375.29;;;20.76;86.67
61359;BME280;47228;46.762;23.598;2022-08-30T14:26:43;97380.86;;;20.86;85.69
61359;BME280;47228;46.762;23.598;2022-08-30T14:29:20;97381.64;;;20.92;85.41
61359;BME280;47228;46.762;23.598;2022-08-30T14:31:51;97382.60;;;20.98;85.03
61359;BME280;47228;46.762;23.598;2022-08-30T14:34:19;97386.23;;;21.04;85.22
61359;BME280;47228;46.762;23.598;2022-08-30T14:36:49;97385.35;;;21.11;85.66
61359;BME280;47228;46.762;23.598;2022-08-30T14:39:19;97378.48;;;21.18;84.66
61359;BME280;47228;46.762;23.598;2022-08-30T14:41:51;97373.72;;;21.23;83.93
61359;BME280;47228;46.762;23.598;2022-08-30T14:44:20;97370.05;;;21.27;84.11
61359;BME280;47228;46.762;23.598;2022-08-30T14:46:49;97374.20;;;21.32;84.13
61359;BME280;47228;46.762;23.598;2022-08-30T14:49:19;97380.14;;;21.36;83.80
61359;BME280;47228;46.762;23.598;2022-08-30T14:51:48;97382.13;;;21.39;82.45
61359;BME280;47228;46.762;23.598;2022-08-30T14:54:21;97383.36;;;21.40;81.82
61359;BME280;47228;46.762;23.598;2022-08-30T14:56:53;97381.85;;;21.41;81.60
61359;BME280;47228;46.762;23.598;2022-08-30T14:59:22;97374.28;;;21.40;80.92
61359;BME280;47228;46.762;23.598;2022-08-30T15:01:51;97372.66;;;21.39;80.21
61359;BME280;47228;46.762;23.598;2022-08-30T15:04:19;97369.33;;;21.39;80.27
61359;BME280;47228;46.762;23.598;2022-08-30T15:06:48;97369.53;;;21.40;80.28
61359;BME280;47228;46.762;23.598;2022-08-30T15:09:20;97367.58;;;21.40;80.46
61359;BME280;47228;46.762;23.598;2022-08-30T15:11:55;97366.13;;;21.39;80.27